TimeEDT,TemperatureF,Dew PointF,Humidity,Sea Level PressureIn,VisibilityMPH,Wind Direction,Wind SpeedMPH,Gust SpeedMPH,PrecipitationIn,Events,Conditions,WindDirDegrees,DateUTC
12:56 AM,39.9,37.9,93,29.99,10.0,ENE,6.9,-,N/A,,Overcast,60,2013-04-05 04:56:00
1:48 AM,41.0,37.4,87,30.00,10.0,NE,3.5,-,N/A,,Overcast,50,2013-04-05 05:48:00
1:56 AM,41.0,37.0,86,30.01,10.0,ENE,3.5,-,N/A,,Overcast,70,2013-04-05 05:56:00
2:45 AM,39.2,37.4,93,29.97,10.0,NE,4.6,-,N/A,,Overcast,40,2013-04-05 06:45:00
2:56 AM,41.0,37.0,86,29.97,10.0,NNE,3.5,-,N/A,,Overcast,30,2013-04-05 06:56:00
3:38 AM,39.2,37.4,93,29.94,10.0,NNE,4.6,-,N/A,,Scattered Clouds,30,2013-04-05 07:38:00
3:56 AM,39.9,37.0,89,29.93,10.0,NNE,4.6,-,N/A,,Clear,30,2013-04-05 07:56:00
4:56 AM,37.0,36.0,96,29.94,10.0,NNW,4.6,-,N/A,,Clear,340,2013-04-05 08:56:00
5:56 AM,35.1,35.1,100,29.96,10.0,SSE,3.5,-,N/A,,Scattered Clouds,150,2013-04-05 09:56:00
6:56 AM,37.0,36.0,96,29.99,10.0,Calm,Calm,-,N/A,,Mostly Cloudy,0,2013-04-05 10:56:00
7:56 AM,39.9,39.0,97,29.98,10.0,NNW,4.6,-,N/A,,Mostly Cloudy,340,2013-04-05 11:56:00
8:56 AM,44.1,39.0,82,30.00,10.0,NW,5.8,-,N/A,,Clear,320,2013-04-05 12:56:00
9:56 AM,48.0,41.0,77,30.00,10.0,NNW,5.8,-,N/A,,Clear,330,2013-04-05 13:56:00
10:56 AM,52.0,42.1,69,30.00,10.0,Variable,6.9,-,N/A,,Partly Cloudy,0,2013-04-05 14:56:00
11:56 AM,55.9,42.1,60,30.00,10.0,ENE,4.6,-,N/A,,Scattered Clouds,60,2013-04-05 15:56:00
12:56 PM,57.9,41.0,53,29.99,10.0,Calm,Calm,-,N/A,,Overcast,0,2013-04-05 16:56:00
1:56 PM,59.0,42.1,53,29.97,10.0,East,4.6,-,N/A,,Overcast,100,2013-04-05 17:56:00
2:56 PM,61.0,42.1,50,29.97,10.0,ENE,6.9,-,N/A,,Overcast,60,2013-04-05 18:56:00
3:56 PM,62.1,41.0,46,29.95,10.0,SSE,4.6,-,N/A,,Mostly Cloudy,150,2013-04-05 19:56:00
4:56 PM,63.0,42.1,46,29.94,10.0,WSW,6.9,-,N/A,,Clear,240,2013-04-05 20:56:00
5:56 PM,64.0,43.0,46,29.95,10.0,SW,5.8,-,N/A,,Clear,230,2013-04-05 21:56:00
6:56 PM,63.0,42.1,46,29.96,10.0,WSW,4.6,-,N/A,,Clear,250,2013-04-05 22:56:00
7:56 PM,60.1,43.0,53,29.98,10.0,SW,3.5,-,N/A,,Clear,230,2013-04-05 23:56:00
8:56 PM,57.0,44.1,62,30.01,10.0,Calm,Calm,-,N/A,,Clear,0,2013-04-06 00:56:00
9:56 PM,51.1,45.0,80,30.04,10.0,ENE,4.6,-,N/A,,Clear,60,2013-04-06 01:56:00
10:56 PM,50.0,44.1,80,30.05,10.0,Calm,Calm,-,N/A,,Clear,0,2013-04-06 02:56:00
11:56 PM,46.0,42.1,86,30.05,10.0,ENE,3.5,-,N/A,,Clear,70,2013-04-06 03:56:00